sensor_id;sensor_type;location;lat;lon;timestamp;P1;durP1;ratioP1;P2;durP2;ratioP2
58896;SDS011;44677;52.378;10.400;2023-05-10T00:00:52;7.80;;;4.10;;
58896;SDS011;44677;52.378;10.400;2023-05-10T00:03:17;4.70;;;3.70;;
58896;SDS011;44677;52.378;10.400;2023-05-10T00:05:43;3.90;;;3.50;;
58896;SDS011;44677;52.378;10.400;2023-05-10T00:08:08;4.10;;;3.50;;
58896;SDS011;44677;52.378;10.400;2023-05-10T00:10:34;4.10;;;3.60;;
58896;SDS011;44677;52.378;10.400;2023-05-10T00:12:59;6.70;;;3.80;;
58896;SDS011;44677;52.378;10.400;2023-05-10T00:15:25;5.30;;;3.10;;
58896;SDS011;44677;52.378;10.400;2023-05-10T00:17:50;4.00;;;3.50;;
58896;SDS011;44677;52.378;10.400;2023-05-10T00:20:15;4.50;;;4.10;;
58896;SDS011;44677;52.378;10.400;2023-05-10T00:22:41;3.70;;;3.30;;
58896;SDS011;44677;52.378;10.400;2023-05-10T00:25:06;5.00;;;3.70;;
58896;SDS011;44677;52.378;10.400;2023-05-10T00:27:33;3.80;;;3.50;;
58896;SDS011;44677;52.378;10.400;2023-05-10T00:29:58;4.30;;;3.90;;
58896;SDS011;44677;52.378;10.400;2023-05-10T00:32:23;4.50;;;4.10;;
58896;SDS011;44677;52.378;10.400;2023-05-10T00:34:49;4.30;;;3.80;;
58896;SDS011;44677;52.378;10.400;2023-05-10T00:37:14;5.10;;;3.80;;
58896;SDS011;44677;52.378;10.400;2023-05-10T00:39:39;4.80;;;3.60;;
58896;SDS011;44677;52.378;10.400;2023-05-10T00:42:05;4.70;;;3.80;;
58896;SDS011;44677;52.378;10.400;2023-05-10T00:44:31;4.30;;;3.70;;
58896;SDS011;44677;52.378;10.400;2023-05-10T00:46:56;4.70;;;4.00;;
58896;SDS011;44677;52.378;10.400;2023-05-10T00:49:22;6.60;;;3.70;;
58896;SDS011;44677;52.378;10.400;2023-05-10T00:51:48;6.10;;;4.20;;
58896;SDS011;44677;52.378;10.400;2023-05-10T00:54:14;4.50;;;3.70;;
58896;SDS011;44677;52.378;10.400;2023-05-10T00:56:40;4.20;;;3.70;;
58896;SDS011;44677;52.378;10.400;2023-05-10T00:59:06;4.30;;;3.90;;
58896;SDS011;44677;52.378;10.400;2023-05-10T01:01:33;5.30;;;3.90;;
58896;SDS011;44677;52.378;10.400;2023-05-10T01:03:58;5.40;;;3.70;;
58896;SDS011;44677;52.378;10.400;2023-05-10T01:06:24;4.40;;;4.00;;
58896;SDS011;44677;52.378;10.400;2023-05-10T01:08:50;4.60;;;4.10;;
58896;SDS011;44677;52.378;10.400;2023-05-10T01:11:16;5.10;;;3.80;;
58896;SDS011;44677;52.378;10.400;2023-05-10T01:13:42;4.70;;;4.10;;
58896;SDS011;44677;52.378;10.400;2023-05-10T01:16:08;5.20;;;3.80;;
58896;SDS011;44677;52.378;10.400;2023-05-10T01:18:35;4.30;;;3.90;;
58896;SDS011;44677;52.378;10.400;2023-05-10T01:21:48;6.30;;;4.00;;
58896;SDS011;44677;52.378;10.400;2023-05-10T01:26:36;6.20;;;4.00;;
58896;SDS011;44677;52.378;10.400;2023-05-10T01:34:35;5.80;;;4.00;;
58896;SDS011;44677;52.378;10.400;2023-05-10T01:38:16;4.30;;;4.00;;
58896;SDS011;44677;52.378;10.400;2023-05-10T01:46:32;5.60;;;3.80;;
58896;SDS011;44677;52.378;10.400;2023-05-10T01:49:00;6.30;;;4.20;;
58896;SDS011;44677;52.378;10.400;2023-05-10T01:51:29;4.10;;;3.80;;
58896;SDS011;44677;52.378;10.400;2023-05-10T01:54:00;7.40;;;4.60;;
58896;SDS011;44677;52.378;10.400;2023-05-10T01:56:28;4.60;;;4.20;;
58896;SDS011;44677;52.378;10.400;2023-05-10T01:58:55;6.80;;;3.90;;
58896;SDS011;44677;52.378;10.400;2023-05-10T02:01:21;5.00;;;4.50;;
58896;SDS011;44677;52.378;10.400;2023-05-10T02:03:47;5.30;;;4.30;;
58896;SDS011;44677;52.378;10.400;2023-05-10T02:06:15;6.40;;;4.30;;
58896;SDS011;44677;52.378;10.400;2023-05-10T02:08:41;6.00;;;4.80;;
58896;SDS011;44677;52.378;10.400;2023-05-10T02:11:07;5.80;;;4.20;;
58896;SDS011;44677;52.378;10.400;2023-05-10T02:13:39;4.60;;;4.10;;
58896;SDS011;44677;52.378;10.400;2023-05-10T02:16:05;4.80;;;4.10;;
58896;SDS011;44677;52.378;10.400;2023-05-10T02:18:31;5.80;;;4.30;;
58896;SDS011;44677;52.378;10.400;2023-05-10T02:20:57;5.40;;;4.70;;
58896;SDS011;44677;52.378;10.400;2023-05-10T02:23:23;4.80;;;4.10;;
58896;SDS011;44677;52.378;10.400;2023-05-10T02:25:49;4.80;;;4.00;;
58896;SDS011;44677;52.378;10.400;2023-05-10T02:28:15;5.00;;;4.10;;
58896;SDS011;44677;52.378;10.400;2023-05-10T02:30:41;5.90;;;4.00;;
58896;SDS011;44677;52.378;10.400;2023-05-10T02:33:07;4.50;;;4.20;;
58896;SDS011;44677;52.378;10.400;2023-05-10T02:35:33;5.20;;;4.20;;
58896;SDS011;44677;52.378;10.400;2023-05-10T02:38:00;4.80;;;4.10;;
58896;SDS011;44677;52.378;10.400;2023-05-10T02:40:28;4.60;;;4.20;;
58896;SDS011;44677;52.378;10.400;2023-05-10T02:42:55;4.80;;;4.10;;
58896;SDS011;44677;52.378;10.400;2023-05-10T02:45:23;4.60;;;4.10;;
58896;SDS011;44677;52.378;10.400;2023-05-10T02:47:51;4.60;;;4.00;;
58896;SDS011;44677;52.378;10.400;2023-05-10T02:50:19;5.50;;;3.60;;
58896;SDS011;44677;52.378;10.400;2023-05-10T02:52:51;4.50;;;4.10;;
58896;SDS011;44677;52.378;10.400;2023-05-10T02:55:21;6.00;;;4.60;;
58896;SDS011;44677;52.378;10.400;2023-05-10T02:57:52;4.80;;;3.70;;
58896;SDS011;44677;52.378;10.400;2023-05-10T03:00:24;9.20;;;4.10;;
58896;SDS011;44677;52.378;10.400;2023-05-10T03:02:50;4.70;;;4.20;;
58896;SDS011;44677;52.378;10.400;2023-05-10T03:05:15;4.20;;;3.90;;
58896;SDS011;44677;52.378;10.400;2023-05-10T03:07:40;7.40;;;4.30;;
58896;SDS011;44677;52.378;10.400;2023-05-10T03:10:06;4.30;;;3.70;;
58896;SDS011;44677;52.378;10.400;2023-05-10T03:12:42;6.90;;;4.60;;
58896;SDS011;44677;52.378;10.400;2023-05-10T03:18:08;5.20;;;4.30;;
58896;SDS011;44677;52.378;10.400;2023-05-10T03:20:37;7.60;;;4.70;;
58896;SDS011;44677;52.378;10.400;2023-05-10T03:25:42;5.40;;;4.10;;
58896;SDS011;44677;52.378;10.400;2023-05-10T03:28:09;4.40;;;3.90;;
58896;SDS011;44677;52.378;10.400;2023-05-10T03:30:35;4.80;;;4.20;;
58896;SDS011;44677;52.378;10.400;2023-05-10T03:35:32;4.80;;;4.40;;
58896;SDS011;44677;52.378;10.400;2023-05-10T03:37:57;5.30;;;4.80;;
58896;SDS011;44677;52.378;10.400;2023-05-10T03:40:23;4.80;;;4.40;;
58896;SDS011;44677;52.378;10.400;2023-05-10T03:42:49;4.90;;;4.50;;
58896;SDS011;44677;52.378;10.400;2023-05-10T03:45:15;4.90;;;4.10;;
58896;SDS011;44677;52.378;10.400;2023-05-10T03:47:40;6.40;;;5.00;;
58896;SDS011;44677;52.378;10.400;2023-05-10T03:50:06;5.70;;;4.60;;
58896;SDS011;44677;52.378;10.400;2023-05-10T03:52:32;6.40;;;4.70;;
58896;SDS011;44677;52.378;10.400;2023-05-10T03:54:57;7.10;;;4.70;;
58896;SDS011;44677;52.378;10.400;2023-05-10T03:57:23;9.00;;;4.50;;
58896;SDS011;44677;52.378;10.400;2023-05-10T03:59:48;6.20;;;4.20;;
58896;SDS011;44677;52.378;10.400;2023-05-10T04:02:14;4.80;;;4.40;;
58896;SDS011;44677;52.378;10.400;2023-05-10T04:04:39;5.20;;;4.70;;
58896;SDS011;44677;52.378;10.400;2023-05-10T04:07:05;7.60;;;4.50;;
58896;SDS011;44677;52.378;10.400;2023-05-10T04:09:30;6.50;;;4.60;;
58896;SDS011;44677;52.378;10.400;2023-05-10T04:11:56;5.00;;;4.40;;
58896;SDS011;44677;52.378;10.400;2023-05-10T04:14:21;5.10;;;4.30;;
58896;SDS011;44677;52.378;10.400;2023-05-10T04:16:47;7.00;;;4.90;;
58896;SDS011;44677;52.378;10.400;2023-05-10T04:19:12;6.70;;;4.70;;
58896;SDS011;44677;52.378;10.400;2023-05-10T04:21:38;4.70;;;4.10;;
58896;SDS011;44677;52.378;10.400;2023-05-10T04:24:03;4.90;;;4.50;;
58896;SDS011;44677;52.378;10.400;2023-05-10T04:26:29;6.00;;;3.90;;
58896;SDS011;44677;52.378;10.400;2023-05-10T04:28:54;4.80;;;4.40;;
58896;SDS011;44677;52.378;10.400;2023-05-10T04:31:19;6.20;;;4.30;;
58896;SDS011;44677;52.378;10.400;2023-05-10T04:33:45;7.20;;;4.60;;
58896;SDS011;44677;52.378;10.400;2023-05-10T04:36:10;8.00;;;4.40;;
58896;SDS011;44677;52.378;10.400;2023-05-10T04:38:35;5.40;;;4.80;;
58896;SDS011;44677;52.378;10.400;2023-05-10T04:41:04;5.40;;;4.70;;
58896;SDS011;44677;52.378;10.400;2023-05-10T04:43:31;5.80;;;4.90;;
58896;SDS011;44677;52.378;10.400;2023-05-10T04:45:56;5.10;;;4.60;;
58896;SDS011;44677;52.378;10.400;2023-05-10T04:48:22;5.10;;;4.60;;
58896;SDS011;44677;52.378;10.400;2023-05-10T04:50:47;6.00;;;4.90;;
58896;SDS011;44677;52.378;10.400;2023-05-10T04:53:12;5.80;;;4.40;;
58896;SDS011;44677;52.378;10.400;2023-05-10T04:55:38;5.70;;;4.40;;
58896;SDS011;44677;52.378;10.400;2023-05-10T04:58:03;6.90;;;5.10;;
58896;SDS011;44677;52.378;10.400;2023-05-10T05:00:28;5.70;;;4.60;;
58896;SDS011;44677;52.378;10.400;2023-05-10T05:02:54;5.60;;;5.10;;
58896;SDS011;44677;52.378;10.400;2023-05-10T05:05:19;9.50;;;5.10;;
58896;SDS011;44677;52.378;10.400;2023-05-10T05:07:45;6.70;;;4.80;;
58896;SDS011;44677;52.378;10.400;2023-05-10T05:10:10;5.50;;;4.90;;
58896;SDS011;44677;52.378;10.400;2023-05-10T05:12:36;7.00;;;4.80;;
58896;SDS011;44677;52.378;10.400;2023-05-10T05:15:02;5.60;;;4.70;;
58896;SDS011;44677;52.378;10.400;2023-05-10T05:17:29;6.50;;;5.40;;
58896;SDS011;44677;52.378;10.400;2023-05-10T05:19:55;5.50;;;4.90;;
58896;SDS011;44677;52.378;10.400;2023-05-10T05:22:21;5.70;;;5.10;;
58896;SDS011;44677;52.378;10.400;2023-05-10T05:24:53;5.00;;;4.60;;
58896;SDS011;44677;52.378;10.400;2023-05-10T05:27:21;5.60;;;4.90;;
58896;SDS011;44677;52.378;10.400;2023-05-10T05:29:52;7.00;;;5.20;;
58896;SDS011;44677;52.378;10.400;2023-05-10T05:32:18;7.20;;;5.10;;
58896;SDS011;44677;52.378;10.400;2023-05-10T05:34:44;7.80;;;4.80;;
58896;SDS011;44677;52.378;10.400;2023-05-10T05:37:18;5.00;;;4.50;;
58896;SDS011;44677;52.378;10.400;2023-05-10T05:39:44;9.60;;;5.60;;
58896;SDS011;44677;52.378;10.400;2023-05-10T05:42:10;7.70;;;5.50;;
58896;SDS011;44677;52.378;10.400;2023-05-10T05:44:36;6.40;;;5.60;;
58896;SDS011;44677;52.378;10.400;2023-05-10T05:47:02;6.30;;;5.00;;
58896;SDS011;44677;52.378;10.400;2023-05-10T05:49:27;6.00;;;5.30;;
58896;SDS011;44677;52.378;10.400;2023-05-10T05:51:53;7.20;;;5.50;;
58896;SDS011;44677;52.378;10.400;2023-05-10T05:54:18;6.20;;;5.60;;
58896;SDS011;44677;52.378;10.400;2023-05-10T05:56:44;9.50;;;5.90;;
58896;SDS011;44677;52.378;10.400;2023-05-10T05:59:09;7.50;;;5.70;;
58896;SDS011;44677;52.378;10.400;2023-05-10T06:01:35;6.30;;;5.70;;
58896;SDS011;44677;52.378;10.400;2023-05-10T06:04:01;8.40;;;5.60;;
58896;SDS011;44677;52.378;10.400;2023-05-10T06:06:26;6.30;;;5.70;;
58896;SDS011;44677;52.378;10.400;2023-05-10T06:08:52;6.90;;;5.40;;
58896;SDS011;44677;52.378;10.400;2023-05-10T06:11:17;6.20;;;5.60;;
58896;SDS011;44677;52.378;10.400;2023-05-10T06:13:42;8.70;;;5.60;;
58896;SDS011;44677;52.378;10.400;2023-05-10T06:16:08;7.80;;;5.80;;
58896;SDS011;44677;52.378;10.400;2023-05-10T06:18:33;6.70;;;5.70;;
58896;SDS011;44677;52.378;10.400;2023-05-10T06:20:59;7.00;;;5.50;;
58896;SDS011;44677;52.378;10.400;2023-05-10T06:23:25;6.40;;;5.80;;
58896;SDS011;44677;52.378;10.400;2023-05-10T06:25:51;6.90;;;6.20;;
58896;SDS011;44677;52.378;10.400;2023-05-10T06:28:17;7.40;;;6.00;;
58896;SDS011;44677;52.378;10.400;2023-05-10T06:30:42;7.60;;;5.60;;
58896;SDS011;44677;52.378;10.400;2023-05-10T06:33:08;6.60;;;5.90;;
58896;SDS011;44677;52.378;10.400;2023-05-10T06:35:33;7.80;;;6.20;;
58896;SDS011;44677;52.378;10.400;2023-05-10T06:37:59;7.20;;;6.50;;
58896;SDS011;44677;52.378;10.400;2023-05-10T06:40:24;10.60;;;6.10;;
58896;SDS011;44677;52.378;10.400;2023-05-10T06:42:50;7.50;;;6.60;;
58896;SDS011;44677;52.378;10.400;2023-05-10T06:45:16;8.00;;;7.00;;
58896;SDS011;44677;52.378;10.400;2023-05-10T06:47:42;7.40;;;6.00;;
58896;SDS011;44677;52.378;10.400;2023-05-10T06:50:08;6.30;;;5.70;;
58896;SDS011;44677;52.378;10.400;2023-05-10T06:52:34;8.00;;;6.10;;
58896;SDS011;44677;52.378;10.400;2023-05-10T06:55:00;7.80;;;5.90;;
58896;SDS011;44677;52.378;10.400;2023-05-10T06:57:25;7.50;;;6.70;;
58896;SDS011;44677;52.378;10.400;2023-05-10T06:59:51;7.40;;;6.70;;
58896;SDS011;44677;52.378;10.400;2023-05-10T07:02:17;6.80;;;6.00;;
58896;SDS011;44677;52.378;10.400;2023-05-10T07:04:42;8.70;;;6.70;;
58896;SDS011;44677;52.378;10.400;2023-05-10T07:07:08;8.30;;;6.40;;
58896;SDS011;44677;52.378;10.400;2023-05-10T07:09:33;7.50;;;6.20;;
58896;SDS011;44677;52.378;10.400;2023-05-10T07:11:59;8.90;;;6.90;;
58896;SDS011;44677;52.378;10.400;2023-05-10T07:14:24;7.40;;;6.40;;
58896;SDS011;44677;52.378;10.400;2023-05-10T07:16:50;7.30;;;6.50;;
58896;SDS011;44677;52.378;10.400;2023-05-10T07:19:15;10.70;;;7.10;;
58896;SDS011;44677;52.378;10.400;2023-05-10T07:21:40;8.90;;;7.00;;
58896;SDS011;44677;52.378;10.400;2023-05-10T07:24:08;8.80;;;7.00;;
58896;SDS011;44677;52.378;10.400;2023-05-10T07:26:34;8.50;;;7.50;;
58896;SDS011;44677;52.378;10.400;2023-05-10T07:28:59;8.40;;;7.10;;
58896;SDS011;44677;52.378;10.400;2023-05-10T07:31:24;8.70;;;6.70;;
58896;SDS011;44677;52.378;10.400;2023-05-10T07:33:50;8.90;;;7.40;;
58896;SDS011;44677;52.378;10.400;2023-05-10T07:36:15;9.20;;;7.90;;
58896;SDS011;44677;52.378;10.400;2023-05-10T07:38:41;9.40;;;7.60;;
58896;SDS011;44677;52.378;10.400;2023-05-10T07:41:06;9.50;;;7.80;;
58896;SDS011;44677;52.378;10.400;2023-05-10T07:43:31;13.00;;;8.10;;
58896;SDS011;44677;52.378;10.400;2023-05-10T07:45:57;9.50;;;8.50;;
58896;SDS011;44677;52.378;10.400;2023-05-10T07:48:25;10.70;;;7.40;;
58896;SDS011;44677;52.378;10.400;2023-05-10T07:50:51;9.50;;;8.00;;
58896;SDS011;44677;52.378;10.400;2023-05-10T07:53:16;10.60;;;7.80;;
58896;SDS011;44677;52.378;10.400;2023-05-10T07:55:41;8.80;;;7.70;;
58896;SDS011;44677;52.378;10.400;2023-05-10T07:58:07;10.10;;;8.50;;
58896;SDS011;44677;52.378;10.400;2023-05-10T08:00:32;8.60;;;7.70;;
58896;SDS011;44677;52.378;10.400;2023-05-10T08:02:58;11.10;;;8.10;;
58896;SDS011;44677;52.378;10.400;2023-05-10T08:05:23;11.90;;;8.90;;
58896;SDS011;44677;52.378;10.400;2023-05-10T08:07:48;12.10;;;8.80;;
58896;SDS011;44677;52.378;10.400;2023-05-10T08:10:14;12.40;;;9.10;;
58896;SDS011;44677;52.378;10.400;2023-05-10T08:12:39;11.40;;;8.80;;
58896;SDS011;44677;52.378;10.400;2023-05-10T08:15:05;11.70;;;8.50;;
58896;SDS011;44677;52.378;10.400;2023-05-10T08:17:31;10.40;;;8.60;;
58896;SDS011;44677;52.378;10.400;2023-05-10T08:19:57;11.10;;;9.70;;
58896;SDS011;44677;52.378;10.400;2023-05-10T08:22:22;11.40;;;8.60;;
58896;SDS011;44677;52.378;10.400;2023-05-10T08:24:48;10.30;;;9.30;;
58896;SDS011;44677;52.378;10.400;2023-05-10T08:27:13;11.00;;;9.10;;
58896;SDS011;44677;52.378;10.400;2023-05-10T08:29:39;9.70;;;8.60;;
58896;SDS011;44677;52.378;10.400;2023-05-10T08:32:04;11.40;;;8.60;;
58896;SDS011;44677;52.378;10.400;2023-05-10T08:34:30;10.50;;;9.40;;
58896;SDS011;44677;52.378;10.400;2023-05-10T08:36:56;9.80;;;8.40;;
58896;SDS011;44677;52.378;10.400;2023-05-10T08:39:21;11.10;;;8.70;;
58896;SDS011;44677;52.378;10.400;2023-05-10T08:41:51;12.00;;;8.30;;
58896;SDS011;44677;52.378;10.400;2023-05-10T08:44:19;12.60;;;8.50;;
58896;SDS011;44677;52.378;10.400;2023-05-10T08:46:46;10.50;;;8.60;;
58896;SDS011;44677;52.378;10.400;2023-05-10T08:49:13;10.80;;;9.70;;
58896;SDS011;44677;52.378;10.400;2023-05-10T08:51:47;10.70;;;8.20;;
58896;SDS011;44677;52.378;10.400;2023-05-10T08:54:16;12.60;;;9.00;;
58896;SDS011;44677;52.378;10.400;2023-05-10T08:56:41;9.70;;;8.30;;
58896;SDS011;44677;52.378;10.400;2023-05-10T08:59:06;9.60;;;7.60;;
58896;SDS011;44677;52.378;10.400;2023-05-10T09:01:32;9.20;;;8.20;;
58896;SDS011;44677;52.378;10.400;2023-05-10T09:03:58;8.70;;;7.80;;
58896;SDS011;44677;52.378;10.400;2023-05-10T09:06:24;10.10;;;8.20;;
58896;SDS011;44677;52.378;10.400;2023-05-10T09:08:49;9.50;;;8.30;;
58896;SDS011;44677;52.378;10.400;2023-05-10T09:11:15;10.40;;;8.60;;
58896;SDS011;44677;52.378;10.400;2023-05-10T09:13:41;11.60;;;8.90;;
58896;SDS011;44677;52.378;10.400;2023-05-10T09:16:06;12.00;;;8.70;;
58896;SDS011;44677;52.378;10.400;2023-05-10T09:18:32;10.70;;;9.60;;
58896;SDS011;44677;52.378;10.400;2023-05-10T09:20:57;9.40;;;8.30;;
58896;SDS011;44677;52.378;10.400;2023-05-10T09:23:23;9.40;;;8.40;;
58896;SDS011;44677;52.378;10.400;2023-05-10T09:26:05;9.20;;;8.10;;
58896;SDS011;44677;52.378;10.400;2023-05-10T09:28:31;9.10;;;7.40;;
58896;SDS011;44677;52.378;10.400;2023-05-10T09:31:15;10.20;;;7.70;;
58896;SDS011;44677;52.378;10.400;2023-05-10T09:33:43;11.90;;;8.20;;
58896;SDS011;44677;52.378;10.400;2023-05-10T09:36:13;8.40;;;7.50;;
58896;SDS011;44677;52.378;10.400;2023-05-10T09:38:48;8.70;;;7.90;;
58896;SDS011;44677;52.378;10.400;2023-05-10T09:41:16;11.90;;;4.80;;
58896;SDS011;44677;52.378;10.400;2023-05-10T09:43:46;6.60;;;4.00;;
58896;SDS011;44677;52.378;10.400;2023-05-10T09:46:12;3.90;;;3.20;;
58896;SDS011;44677;52.378;10.400;2023-05-10T09:48:42;6.10;;;3.30;;
58896;SDS011;44677;52.378;10.400;2023-05-10T09:51:21;6.40;;;4.10;;
58896;SDS011;44677;52.378;10.400;2023-05-10T09:53:49;3.70;;;3.20;;
58896;SDS011;44677;52.378;10.400;2023-05-10T09:56:35;23.50;;;3.50;;
58896;SDS011;44677;52.378;10.400;2023-05-10T09:59:02;3.20;;;2.80;;
58896;SDS011;44677;52.378;10.400;2023-05-10T10:01:28;2.90;;;2.50;;
58896;SDS011;44677;52.378;10.400;2023-05-10T10:03:54;3.50;;;2.70;;
58896;SDS011;44677;52.378;10.400;2023-05-10T10:06:19;12.60;;;3.90;;
58896;SDS011;44677;52.378;10.400;2023-05-10T10:08:45;6.20;;;3.20;;
58896;SDS011;44677;52.378;10.400;2023-05-10T10:11:10;5.10;;;2.80;;
58896;SDS011;44677;52.378;10.400;2023-05-10T10:13:36;3.10;;;2.70;;
58896;SDS011;44677;52.378;10.400;2023-05-10T10:16:02;4.70;;;3.20;;
58896;SDS011;44677;52.378;10.400;2023-05-10T10:18:27;3.30;;;3.10;;
58896;SDS011;44677;52.378;10.400;2023-05-10T10:20:54;26.80;;;3.70;;
58896;SDS011;44677;52.378;10.400;2023-05-10T10:23:20;3.30;;;3.00;;
58896;SDS011;44677;52.378;10.400;2023-05-10T10:25:45;7.60;;;3.50;;
58896;SDS011;44677;52.378;10.400;2023-05-10T10:30:50;4.20;;;3.40;;
58896;SDS011;44677;52.378;10.400;2023-05-10T10:33:28;8.90;;;3.40;;
58896;SDS011;44677;52.378;10.400;2023-05-10T10:36:05;5.80;;;3.60;;
58896;SDS011;44677;52.378;10.400;2023-05-10T10:38:41;3.90;;;3.60;;
58896;SDS011;44677;52.378;10.400;2023-05-10T10:49:37;2.50;;;2.30;;
58896;SDS011;44677;52.378;10.400;2023-05-10T10:54:59;3.00;;;2.00;;
58896;SDS011;44677;52.378;10.400;2023-05-10T10:57:26;2.50;;;2.30;;
58896;SDS011;44677;52.378;10.400;2023-05-10T11:00:17;4.40;;;2.30;;
58896;SDS011;44677;52.378;10.400;2023-05-10T11:02:44;4.90;;;2.50;;
58896;SDS011;44677;52.378;10.400;2023-05-10T11:08:09;9.20;;;3.20;;
58896;SDS011;44677;52.378;10.400;2023-05-10T11:10:36;5.80;;;3.70;;
58896;SDS011;44677;52.378;10.400;2023-05-10T11:13:02;3.60;;;3.40;;
58896;SDS011;44677;52.378;10.400;2023-05-10T11:15:33;4.20;;;3.90;;
58896;SDS011;44677;52.378;10.400;2023-05-10T11:20:44;4.20;;;3.80;;
58896;SDS011;44677;52.378;10.400;2023-05-10T11:23:12;4.30;;;4.00;;
58896;SDS011;44677;52.378;10.400;2023-05-10T11:25:44;4.50;;;4.20;;
58896;SDS011;44677;52.378;10.400;2023-05-10T11:28:10;4.50;;;4.20;;
58896;SDS011;44677;52.378;10.400;2023-05-10T11:30:40;4.40;;;4.10;;
58896;SDS011;44677;52.378;10.400;2023-05-10T11:33:07;5.00;;;4.50;;
58896;SDS011;44677;52.378;10.400;2023-05-10T11:35:39;4.40;;;4.10;;
58896;SDS011;44677;52.378;10.400;2023-05-10T11:38:06;5.00;;;4.50;;
58896;SDS011;44677;52.378;10.400;2023-05-10T11:40:32;5.40;;;4.90;;
58896;SDS011;44677;52.378;10.400;2023-05-10T11:42:58;5.60;;;5.10;;
58896;SDS011;44677;52.378;10.400;2023-05-10T11:45:24;5.50;;;4.70;;
58896;SDS011;44677;52.378;10.400;2023-05-10T11:47:50;6.40;;;5.80;;
58896;SDS011;44677;52.378;10.400;2023-05-10T11:50:16;5.50;;;5.00;;
58896;SDS011;44677;52.378;10.400;2023-05-10T11:55:07;4.50;;;4.20;;
58896;SDS011;44677;52.378;10.400;2023-05-10T11:57:33;4.40;;;3.90;;
58896;SDS011;44677;52.378;10.400;2023-05-10T11:59:58;4.30;;;3.90;;
58896;SDS011;44677;52.378;10.400;2023-05-10T12:02:24;3.60;;;3.30;;
58896;SDS011;44677;52.378;10.400;2023-05-10T12:04:49;3.70;;;3.40;;
58896;SDS011;44677;52.378;10.400;2023-05-10T12:07:16;4.00;;;3.80;;
58896;SDS011;44677;52.378;10.400;2023-05-10T12:09:42;3.70;;;3.40;;
58896;SDS011;44677;52.378;10.400;2023-05-10T12:12:09;5.20;;;3.70;;
58896;SDS011;44677;52.378;10.400;2023-05-10T12:14:35;3.90;;;3.60;;
58896;SDS011;44677;52.378;10.400;2023-05-10T12:17:00;3.80;;;3.60;;
58896;SDS011;44677;52.378;10.400;2023-05-10T12:19:26;3.60;;;3.30;;
58896;SDS011;44677;52.378;10.400;2023-05-10T12:21:51;3.40;;;3.10;;
58896;SDS011;44677;52.378;10.400;2023-05-10T12:24:16;4.00;;;3.10;;
58896;SDS011;44677;52.378;10.400;2023-05-10T12:26:43;4.00;;;3.60;;
58896;SDS011;44677;52.378;10.400;2023-05-10T12:29:17;3.90;;;3.60;;
58896;SDS011;44677;52.378;10.400;2023-05-10T12:37:01;4.00;;;3.60;;
58896;SDS011;44677;52.378;10.400;2023-05-10T12:39:38;3.80;;;3.50;;
58896;SDS011;44677;52.378;10.400;2023-05-10T12:42:05;3.80;;;3.50;;
58896;SDS011;44677;52.378;10.400;2023-05-10T12:44:30;3.70;;;3.20;;
58896;SDS011;44677;52.378;10.400;2023-05-10T12:46:55;3.70;;;3.50;;
58896;SDS011;44677;52.378;10.400;2023-05-10T12:49:21;3.40;;;3.20;;
58896;SDS011;44677;52.378;10.400;2023-05-10T12:51:46;3.80;;;3.50;;
58896;SDS011;44677;52.378;10.400;2023-05-10T12:54:11;3.90;;;3.40;;
58896;SDS011;44677;52.378;10.400;2023-05-10T12:56:37;5.50;;;3.80;;
58896;SDS011;44677;52.378;10.400;2023-05-10T12:59:02;3.90;;;3.60;;
58896;SDS011;44677;52.378;10.400;2023-05-10T13:01:28;3.40;;;3.20;;
58896;SDS011;44677;52.378;10.400;2023-05-10T13:03:53;3.20;;;3.00;;
58896;SDS011;44677;52.378;10.400;2023-05-10T13:06:18;4.80;;;3.20;;
58896;SDS011;44677;52.378;10.400;2023-05-10T13:08:44;3.20;;;2.90;;
58896;SDS011;44677;52.378;10.400;2023-05-10T13:11:09;4.00;;;2.90;;
58896;SDS011;44677;52.378;10.400;2023-05-10T13:13:35;3.90;;;3.10;;
58896;SDS011;44677;52.378;10.400;2023-05-10T13:16:00;3.60;;;3.30;;
58896;SDS011;44677;52.378;10.400;2023-05-10T13:18:26;4.60;;;2.70;;
58896;SDS011;44677;52.378;10.400;2023-05-10T13:20:51;3.50;;;3.20;;
58896;SDS011;44677;52.378;10.400;2023-05-10T13:23:16;3.10;;;2.80;;
58896;SDS011;44677;52.378;10.400;2023-05-10T13:25:42;3.00;;;2.70;;
58896;SDS011;44677;52.378;10.400;2023-05-10T13:28:07;3.70;;;2.80;;
58896;SDS011;44677;52.378;10.400;2023-05-10T13:30:32;2.70;;;2.50;;
58896;SDS011;44677;52.378;10.400;2023-05-10T13:32:58;2.70;;;2.50;;
58896;SDS011;44677;52.378;10.400;2023-05-10T13:35:23;2.90;;;2.70;;
58896;SDS011;44677;52.378;10.400;2023-05-10T13:37:49;3.90;;;3.00;;
58896;SDS011;44677;52.378;10.400;2023-05-10T13:40:14;2.80;;;2.60;;
58896;SDS011;44677;52.378;10.400;2023-05-10T13:42:40;2.50;;;2.10;;
58896;SDS011;44677;52.378;10.400;2023-05-10T13:45:06;3.90;;;2.50;;
58896;SDS011;44677;52.378;10.400;2023-05-10T13:47:32;2.60;;;2.40;;
58896;SDS011;44677;52.378;10.400;2023-05-10T13:49:57;3.40;;;3.00;;
58896;SDS011;44677;52.378;10.400;2023-05-10T13:52:23;3.60;;;2.90;;
58896;SDS011;44677;52.378;10.400;2023-05-10T13:54:49;3.10;;;2.80;;
58896;SDS011;44677;52.378;10.400;2023-05-10T13:57:14;5.60;;;2.90;;
58896;SDS011;44677;52.378;10.400;2023-05-10T13:59:41;6.00;;;3.00;;
58896;SDS011;44677;52.378;10.400;2023-05-10T14:02:07;4.10;;;3.00;;
58896;SDS011;44677;52.378;10.400;2023-05-10T14:04:32;3.00;;;2.60;;
58896;SDS011;44677;52.378;10.400;2023-05-10T14:07:00;2.40;;;2.20;;
58896;SDS011;44677;52.378;10.400;2023-05-10T14:09:26;3.30;;;3.00;;
58896;SDS011;44677;52.378;10.400;2023-05-10T14:11:51;4.00;;;3.20;;
58896;SDS011;44677;52.378;10.400;2023-05-10T14:14:16;3.70;;;2.80;;
58896;SDS011;44677;52.378;10.400;2023-05-10T14:16:45;4.70;;;3.10;;
58896;SDS011;44677;52.378;10.400;2023-05-10T14:19:10;4.10;;;2.70;;
58896;SDS011;44677;52.378;10.400;2023-05-10T14:21:36;4.10;;;3.00;;
58896;SDS011;44677;52.378;10.400;2023-05-10T14:24:02;4.10;;;2.70;;
58896;SDS011;44677;52.378;10.400;2023-05-10T14:26:27;2.90;;;2.50;;
58896;SDS011;44677;52.378;10.400;2023-05-10T14:28:53;3.00;;;2.40;;
58896;SDS011;44677;52.378;10.400;2023-05-10T14:31:18;2.70;;;2.50;;
58896;SDS011;44677;52.378;10.400;2023-05-10T14:33:46;3.00;;;2.20;;
58896;SDS011;44677;52.378;10.400;2023-05-10T14:36:11;5.40;;;2.80;;
58896;SDS011;44677;52.378;10.400;2023-05-10T14:38:37;2.50;;;2.20;;
58896;SDS011;44677;52.378;10.400;2023-05-10T14:41:02;6.10;;;2.40;;
58896;SDS011;44677;52.378;10.400;2023-05-10T14:43:28;7.40;;;3.10;;
58896;SDS011;44677;52.378;10.400;2023-05-10T14:45:54;2.70;;;2.50;;
58896;SDS011;44677;52.378;10.400;2023-05-10T14:48:19;2.60;;;2.20;;
58896;SDS011;44677;52.378;10.400;2023-05-10T14:50:46;3.60;;;2.20;;
58896;SDS011;44677;52.378;10.400;2023-05-10T14:53:11;3.50;;;2.40;;
58896;SDS011;44677;52.378;10.400;2023-05-10T14:55:37;2.40;;;2.10;;
58896;SDS011;44677;52.378;10.400;2023-05-10T14:58:03;2.50;;;2.20;;
58896;SDS011;44677;52.378;10.400;2023-05-10T15:00:28;3.30;;;2.20;;
58896;SDS011;44677;52.378;10.400;2023-05-10T15:02:54;2.60;;;2.20;;
58896;SDS011;44677;52.378;10.400;2023-05-10T15:05:19;2.60;;;2.40;;
58896;SDS011;44677;52.378;10.400;2023-05-10T15:07:45;4.10;;;2.00;;
58896;SDS011;44677;52.378;10.400;2023-05-10T15:10:10;2.40;;;2.20;;
58896;SDS011;44677;52.378;10.400;2023-05-10T15:12:36;4.40;;;2.70;;
58896;SDS011;44677;52.378;10.400;2023-05-10T15:15:02;3.20;;;2.60;;
58896;SDS011;44677;52.378;10.400;2023-05-10T15:17:28;2.80;;;2.60;;
58896;SDS011;44677;52.378;10.400;2023-05-10T15:19:54;2.30;;;2.10;;